Diamond Island, Maine
Current Conditions -  °F | °C
As of 5:51 PM on Saturday 25 Oct 2014 (Local Time) from KPWM Reporting Station
Broken Clouds Broken Clouds  
Wind Chill: 55°   Ceiling: 20000
Heat Index: 55°   Visibility: 10mi
Dew Point: 46°   Wind: 6mph
Humidity: 72%   Direction: 180°S
Pressure: 29.56"   Gusts: NA
Location:  43.6801°N, 70.1969°W
Report Text: KPWM 252151Z 18005KT 10SM BKN200 13/08 A2956 RMK AO2 SLP008 T01280078
Loading
Personal Weather Stations






























Interactive Weather Map New forecast layout! Learn more

10-Day Weather Forecast

Advertisements
Track Severe Weather on mobile